createdAt,value
2022-11-19T00:01:17.689Z,10.40
2022-11-19T00:06:22.917Z,9.93
2022-11-19T00:11:41.976Z,9.80
2022-11-19T00:16:46.431Z,10.53
2022-11-19T00:21:50.175Z,9.83
2022-11-19T00:26:53.060Z,9.93
2022-11-19T00:31:57.314Z,11.20
2022-11-19T00:37:00.219Z,11.23
2022-11-19T00:42:03.078Z,9.77
2022-11-19T00:47:07.480Z,8.63
2022-11-19T00:52:10.372Z,9.17
2022-11-19T00:57:13.223Z,8.00
2022-11-19T01:02:17.427Z,9.43
2022-11-19T01:07:20.354Z,8.40
2022-11-19T01:12:23.299Z,10.63
2022-11-19T01:17:27.552Z,9.07
2022-11-19T01:22:30.490Z,8.37
2022-11-19T01:27:33.352Z,8.90
2022-11-19T01:32:37.594Z,8.37
2022-11-19T01:37:40.470Z,9.83
2022-11-19T01:42:53.950Z,8.93
2022-11-19T01:48:02.040Z,8.20
2022-11-19T01:53:05.406Z,8.63
2022-11-19T01:58:09.118Z,8.53
2022-11-19T02:03:15.226Z,8.93
2022-11-19T02:08:37.361Z,9.30
2022-11-19T02:13:43.947Z,9.23
2022-11-19T02:18:52.686Z,9.60
2022-11-19T02:24:14.401Z,9.30
2022-11-19T02:29:31.950Z,8.57
2022-11-19T02:34:43.381Z,8.80
2022-11-19T02:39:52.300Z,8.40
2022-11-19T02:45:00.048Z,9.20
2022-11-19T02:50:10.805Z,8.53
2022-11-19T02:55:19.220Z,8.53
2022-11-19T03:00:40.539Z,8.97
2022-11-19T03:05:49.936Z,9.33
2022-11-19T03:11:12.315Z,7.80
2022-11-19T03:16:39.425Z,8.73
2022-11-19T03:21:52.508Z,8.87
2022-11-19T03:26:59.390Z,8.17
2022-11-19T03:32:07.818Z,9.40
2022-11-19T03:37:14.048Z,9.07
2022-11-19T03:42:20.045Z,9.10
2022-11-19T03:47:27.579Z,9.10
2022-11-19T03:52:33.475Z,8.33
2022-11-19T03:57:36.356Z,9.77
2022-11-19T04:02:39.289Z,8.90
2022-11-19T04:07:43.560Z,9.27
2022-11-19T04:12:46.542Z,10.77
2022-11-19T04:17:49.427Z,9.40
2022-11-19T04:22:53.818Z,9.23
2022-11-19T04:27:56.728Z,10.07
2022-11-19T04:32:59.630Z,8.87
2022-11-19T04:38:04.153Z,9.43
2022-11-19T04:43:07.081Z,9.20
2022-11-19T04:48:09.998Z,9.70
2022-11-19T04:53:14.268Z,9.43
2022-11-19T04:58:17.146Z,8.83
2022-11-19T05:03:20.092Z,9.50
2022-11-19T05:08:24.895Z,10.60
2022-11-19T05:13:27.830Z,9.10
2022-11-19T05:18:30.782Z,9.80
2022-11-19T05:23:35.288Z,9.30
2022-11-19T05:28:39.642Z,9.20
2022-11-19T05:33:43.060Z,9.83
2022-11-19T05:38:47.555Z,9.67
2022-11-19T05:43:50.410Z,9.43
2022-11-19T05:48:53.301Z,8.73
2022-11-19T05:53:57.581Z,9.40
2022-11-19T05:59:00.497Z,10.67
2022-11-19T06:04:03.446Z,10.63
2022-11-19T06:09:08.225Z,12.30
2022-11-19T06:14:11.118Z,10.93
2022-11-19T06:19:14.010Z,11.67
2022-11-19T06:24:18.748Z,9.90
2022-11-19T06:29:22.075Z,10.50
2022-11-19T06:34:25.097Z,11.03
2022-11-19T06:39:29.382Z,9.70
2022-11-19T06:44:32.244Z,11.37
2022-11-19T06:49:35.084Z,13.10
2022-11-19T06:54:42.934Z,11.23
2022-11-19T06:59:46.240Z,10.97
2022-11-19T07:04:49.144Z,11.30
2022-11-19T07:09:53.386Z,12.37
2022-11-19T07:15:01.106Z,11.80
2022-11-19T07:20:08.103Z,11.70
2022-11-19T07:25:13.587Z,14.17
2022-11-19T07:30:17.498Z,15.93
2022-11-19T07:35:20.403Z,15.80
2022-11-19T07:40:24.741Z,16.57
2022-11-19T07:45:27.695Z,17.37
2022-11-19T07:50:30.684Z,27.60
2022-11-19T07:55:35.244Z,30.77
2022-11-19T08:00:38.328Z,23.87
2022-11-19T08:05:42.042Z,28.43
2022-11-19T08:10:46.276Z,35.63
2022-11-19T08:15:49.156Z,32.83
2022-11-19T08:20:52.482Z,29.63
2022-11-19T08:25:56.857Z,28.97
2022-11-19T08:31:06.804Z,31.90
2022-11-19T08:36:09.913Z,33.40
2022-11-19T08:41:31.723Z,18.70
2022-11-19T08:46:34.681Z,19.90
2022-11-19T08:51:37.601Z,21.60
2022-11-19T08:56:41.983Z,17.83
2022-11-19T09:01:45.126Z,13.47
2022-11-19T09:06:48.221Z,13.03
2022-11-19T09:11:52.582Z,12.77
2022-11-19T09:16:55.719Z,14.13
2022-11-19T09:21:58.744Z,13.90
2022-11-19T09:27:04.433Z,32.90
2022-11-19T09:32:07.787Z,26.10
2022-11-19T09:37:11.396Z,16.87
2022-11-19T09:42:26.953Z,18.50
2022-11-19T09:47:39.732Z,17.20
2022-11-19T09:52:48.017Z,40.17
2022-11-19T09:57:55.994Z,20.47
2022-11-19T10:03:02.467Z,19.60
2022-11-19T10:08:16.594Z,16.50
2022-11-19T10:13:45.211Z,38.87
2022-11-19T10:19:00.418Z,27.67
2022-11-19T10:24:17.749Z,18.83
2022-11-19T10:29:27.322Z,18.33
2022-11-19T10:34:34.768Z,16.40
2022-11-19T10:39:42.134Z,16.57
2022-11-19T10:44:53.870Z,18.10
2022-11-19T10:49:57.429Z,14.80
2022-11-19T10:55:06.132Z,12.50
2022-11-19T11:00:12.561Z,13.10
2022-11-19T11:05:18.071Z,14.63
2022-11-19T11:10:34.084Z,14.90
2022-11-19T11:15:45.712Z,15.03
2022-11-19T11:20:50.985Z,15.30
2022-11-19T11:25:57.546Z,16.27
2022-11-19T11:31:03.975Z,14.57
2022-11-19T11:36:10.049Z,13.13
2022-11-19T11:42:04.312Z,12.67
2022-11-19T11:46:44.376Z,11.70
2022-11-19T11:51:47.367Z,11.30
2022-11-19T11:56:50.451Z,10.00
2022-11-19T12:01:59.521Z,9.60
2022-11-19T12:07:14.157Z,8.80
2022-11-19T12:12:26.215Z,8.70
2022-11-19T12:17:44.350Z,8.27
2022-11-19T12:23:01.566Z,8.03
2022-11-19T12:28:26.816Z,8.00
2022-11-19T12:33:44.256Z,8.90
2022-11-19T12:38:55.817Z,9.53
2022-11-19T12:44:01.019Z,7.50
2022-11-19T12:49:36.723Z,6.60
2022-11-19T12:54:53.843Z,6.60
2022-11-19T13:00:15.313Z,5.67
2022-11-19T13:05:21.098Z,5.20
2022-11-19T13:10:30.047Z,4.90
2022-11-19T13:15:38.599Z,4.90
2022-11-19T13:20:46.545Z,13.77
2022-11-19T13:26:00.141Z,17.00
2022-11-19T13:31:10.164Z,6.67
2022-11-19T13:36:23.260Z,14.63
2022-11-19T13:41:32.164Z,5.80
2022-11-19T13:46:40.878Z,5.40
2022-11-19T13:51:46.891Z,7.27
2022-11-19T13:56:53.438Z,6.97
2022-11-19T14:02:07.305Z,6.17
2022-11-19T14:07:42.492Z,6.10
2022-11-19T14:13:00.932Z,6.60
2022-11-19T14:18:29.366Z,7.63
2022-11-19T14:24:00.819Z,5.60
2022-11-19T14:29:05.206Z,7.63
2022-11-19T14:34:26.864Z,12.30
2022-11-19T14:39:32.582Z,6.40
2022-11-19T14:44:37.007Z,5.50
2022-11-19T14:49:41.202Z,6.10
2022-11-19T14:54:45.940Z,6.60
2022-11-19T14:59:54.232Z,11.80
2022-11-19T15:05:02.835Z,19.27
2022-11-19T15:10:31.723Z,33.07
2022-11-19T15:15:44.401Z,8.00
2022-11-19T15:21:08.812Z,8.47
2022-11-19T15:26:22.951Z,8.90
2022-11-19T15:31:59.566Z,7.63
2022-11-19T15:37:05.605Z,6.13
2022-11-19T15:42:14.786Z,5.97
2022-11-19T15:47:22.979Z,6.83
2022-11-19T15:52:28.824Z,7.63
2022-11-19T15:57:32.364Z,9.10
2022-11-19T16:02:42.244Z,9.87
2022-11-19T16:07:48.679Z,8.83
2022-11-19T16:13:12.837Z,10.80
2022-11-19T16:18:18.943Z,11.00
2022-11-19T16:23:23.646Z,13.67
2022-11-19T16:28:30.427Z,7.73
2022-11-19T16:33:36.076Z,7.40
2022-11-19T16:38:41.124Z,7.93
2022-11-19T16:43:48.419Z,5.30
2022-11-19T16:48:57.865Z,18.77
2022-11-19T16:54:00.973Z,28.60
2022-11-19T16:59:05.679Z,34.47
2022-11-19T17:04:15.461Z,53.20
2022-11-19T17:09:34.743Z,27.07
2022-11-19T17:14:49.945Z,23.67
2022-11-19T17:19:56.407Z,23.57
2022-11-19T17:25:02.326Z,24.70
2022-11-19T17:30:11.349Z,24.97
2022-11-19T17:35:34.323Z,25.40
2022-11-19T17:40:37.427Z,22.27
2022-11-19T17:45:40.372Z,26.83
2022-11-19T17:50:44.629Z,24.23
2022-11-19T17:55:49.691Z,23.73
2022-11-19T18:00:52.721Z,23.93
2022-11-19T18:05:57.854Z,23.67
2022-11-19T18:11:00.851Z,20.63
2022-11-19T18:16:03.821Z,13.97
2022-11-19T18:21:12.890Z,12.47
2022-11-19T18:26:17.674Z,12.60
2022-11-19T18:31:22.630Z,14.30
2022-11-19T18:36:27.282Z,17.07
2022-11-19T18:41:32.102Z,18.20
2022-11-19T18:46:35.206Z,20.70
2022-11-19T18:51:40.313Z,21.87
2022-11-19T18:56:43.207Z,24.70
2022-11-19T19:01:46.389Z,25.47
2022-11-19T19:06:51.113Z,25.33
2022-11-19T19:12:13.723Z,25.30
2022-11-19T19:17:17.559Z,22.90
2022-11-19T19:22:22.594Z,23.30
2022-11-19T19:27:25.617Z,23.10
2022-11-19T19:32:29.086Z,23.23
2022-11-19T19:37:33.515Z,23.50
2022-11-19T19:42:41.082Z,26.57
2022-11-19T19:47:44.341Z,25.73
2022-11-19T19:52:48.702Z,24.70
2022-11-19T19:57:51.818Z,28.70
2022-11-19T20:02:54.769Z,28.00
2022-11-19T20:07:59.060Z,34.10
2022-11-19T20:13:19.217Z,32.63
2022-11-19T20:18:22.104Z,24.30
2022-11-19T20:23:26.324Z,27.20
2022-11-19T20:28:30.237Z,26.40
2022-11-19T20:33:33.589Z,23.90
2022-11-19T20:38:38.527Z,21.10
2022-11-19T20:43:58.694Z,16.30
2022-11-19T20:49:01.670Z,15.50
2022-11-19T20:54:07.500Z,13.83
2022-11-19T20:59:10.967Z,12.63
2022-11-19T21:04:13.857Z,14.30
2022-11-19T21:09:19.614Z,15.77
2022-11-19T21:14:23.126Z,17.00
2022-11-19T21:19:26.054Z,16.70
2022-11-19T21:24:30.351Z,18.37
2022-11-19T21:29:33.257Z,17.20
2022-11-19T21:34:36.188Z,18.33
2022-11-19T21:39:40.415Z,18.40
2022-11-19T21:44:43.299Z,18.80
2022-11-19T21:49:46.159Z,18.77
2022-11-19T21:54:50.453Z,15.80
2022-11-19T21:59:53.351Z,15.30
2022-11-19T22:04:56.384Z,14.20
2022-11-19T22:10:00.687Z,9.97
2022-11-19T22:15:05.045Z,9.80
2022-11-19T22:20:08.790Z,10.00
2022-11-19T22:25:13.877Z,11.47
2022-11-19T22:30:17.162Z,29.10
2022-11-19T22:35:20.067Z,9.43
2022-11-19T22:40:24.302Z,9.70
2022-11-19T22:45:27.188Z,10.50
2022-11-19T22:50:30.052Z,12.10
2022-11-19T22:55:35.606Z,13.30
2022-11-19T23:00:43.127Z,11.90
2022-11-19T23:05:47.817Z,12.53
2022-11-19T23:10:57.969Z,12.97
2022-11-19T23:16:03.486Z,14.50
2022-11-19T23:21:08.838Z,13.73
2022-11-19T23:26:16.146Z,18.20
2022-11-19T23:31:22.465Z,16.97
2022-11-19T23:36:27.343Z,14.63
2022-11-19T23:41:32.796Z,12.70
2022-11-19T23:46:37.523Z,15.30
2022-11-19T23:51:40.615Z,15.27
2022-11-19T23:56:44.955Z,13.97
